createdAt,value
2018-03-20T00:00:48.598Z,4.20
2018-03-20T00:03:16.633Z,4.40
2018-03-20T00:05:44.654Z,4.55
2018-03-20T00:08:12.686Z,4.72
2018-03-20T00:10:40.730Z,4.62
2018-03-20T00:13:08.829Z,4.78
2018-03-20T00:15:37.625Z,4.40
2018-03-20T00:18:06.433Z,3.33
2018-03-20T00:20:35.223Z,3.90
2018-03-20T00:23:04.027Z,3.65
2018-03-20T00:25:32.062Z,4.18
2018-03-20T00:28:00.071Z,4.60
2018-03-20T00:30:28.109Z,4.22
2018-03-20T00:32:56.150Z,4.22
2018-03-20T00:35:24.177Z,3.83
2018-03-20T00:37:52.209Z,4.00
2018-03-20T00:40:20.242Z,3.90
2018-03-20T00:42:48.271Z,2.67
2018-03-20T00:45:16.303Z,3.05
2018-03-20T00:47:44.339Z,3.70
2018-03-20T00:50:12.362Z,5.10
2018-03-20T00:52:41.153Z,3.53
2018-03-20T00:55:09.200Z,4.40
2018-03-20T00:57:37.227Z,2.92
2018-03-20T01:00:06.018Z,4.00
2018-03-20T01:02:34.826Z,4.15
2018-03-20T01:05:03.610Z,4.37
2018-03-20T01:07:31.650Z,4.47
2018-03-20T01:09:59.677Z,4.45
2018-03-20T01:12:27.694Z,3.37
2018-03-20T01:14:55.730Z,4.65
2018-03-20T01:17:25.276Z,3.62
2018-03-20T01:19:54.067Z,3.35
2018-03-20T01:22:22.093Z,3.85
2018-03-20T01:24:50.126Z,3.72
2018-03-20T01:27:18.145Z,3.97
2018-03-20T01:29:46.173Z,4.15
2018-03-20T01:32:14.216Z,3.58
2018-03-20T01:34:42.222Z,4.22
2018-03-20T01:37:10.259Z,2.37
2018-03-20T01:39:39.045Z,5.90
2018-03-20T01:42:07.073Z,4.30
2018-03-20T01:44:35.102Z,5.05
2018-03-20T01:47:03.135Z,3.37
2018-03-20T01:49:31.155Z,3.90
2018-03-20T01:51:59.182Z,5.12
2018-03-20T01:54:27.978Z,3.50
2018-03-20T01:56:56.799Z,3.83
2018-03-20T01:59:24.834Z,4.32
2018-03-20T02:01:52.876Z,3.85
2018-03-20T02:04:20.898Z,2.80
2018-03-20T02:06:48.949Z,4.68
2018-03-20T02:09:16.973Z,3.53
2018-03-20T02:11:44.997Z,3.47
2018-03-20T02:14:13.056Z,4.25
2018-03-20T02:16:41.080Z,4.10
2018-03-20T02:19:09.098Z,3.45
2018-03-20T02:21:37.125Z,3.92
2018-03-20T02:24:05.160Z,4.22
2018-03-20T02:26:33.174Z,3.42
2018-03-20T02:29:01.970Z,3.37
2018-03-20T02:31:30.007Z,3.35
2018-03-20T02:33:58.035Z,4.93
2018-03-20T02:36:26.069Z,3.53
2018-03-20T02:38:54.102Z,4.10
2018-03-20T02:41:22.130Z,3.47
2018-03-20T02:43:50.173Z,4.30
2018-03-20T02:46:22.054Z,3.97
2018-03-20T02:48:50.852Z,4.43
2018-03-20T02:51:19.692Z,5.62
2018-03-20T02:53:47.711Z,4.18
2018-03-20T02:56:15.757Z,3.35
2018-03-20T02:58:43.803Z,3.60
2018-03-20T03:01:11.764Z,3.28
2018-03-20T03:03:39.767Z,3.75
2018-03-20T03:06:08.546Z,4.65
2018-03-20T03:08:36.525Z,3.33
2018-03-20T03:11:04.524Z,4.90
2018-03-20T03:13:33.296Z,3.75
2018-03-20T03:16:01.285Z,4.20
2018-03-20T03:18:29.292Z,3.97
2018-03-20T03:20:58.077Z,4.28
2018-03-20T03:23:26.060Z,2.87
2018-03-20T03:25:54.063Z,3.53
2018-03-20T03:28:22.071Z,4.03
2018-03-20T03:30:50.064Z,4.57
2018-03-20T03:33:18.054Z,4.37
2018-03-20T03:35:46.059Z,3.10
2018-03-20T03:38:14.052Z,2.40
2018-03-20T03:40:42.063Z,4.00
2018-03-20T03:43:10.829Z,3.10
2018-03-20T03:45:39.585Z,2.83
2018-03-20T03:48:07.597Z,2.42
2018-03-20T03:50:35.637Z,4.32
2018-03-20T03:53:03.600Z,3.50
2018-03-20T03:55:32.460Z,5.97
2018-03-20T03:58:00.460Z,4.22
2018-03-20T04:00:28.457Z,4.15
2018-03-20T04:02:56.460Z,3.35
2018-03-20T04:05:25.240Z,2.17
2018-03-20T04:07:53.281Z,2.55
2018-03-20T04:10:21.284Z,3.10
2018-03-20T04:12:49.308Z,3.22
2018-03-20T04:15:18.060Z,3.00
2018-03-20T04:17:46.068Z,2.72
2018-03-20T04:20:14.073Z,3.28
2018-03-20T04:22:42.829Z,4.25
2018-03-20T04:25:10.832Z,4.28
2018-03-20T04:27:38.841Z,3.65
2018-03-20T04:30:07.592Z,2.75
2018-03-20T04:32:35.597Z,2.10
2018-03-20T04:35:03.604Z,3.12
2018-03-20T04:37:32.356Z,2.72
2018-03-20T04:40:00.365Z,2.95
2018-03-20T04:42:28.364Z,4.30
2018-03-20T04:44:56.360Z,3.72
2018-03-20T04:47:25.135Z,3.90
2018-03-20T04:49:53.228Z,4.32
2018-03-20T04:52:21.231Z,3.55
2018-03-20T04:54:50.008Z,4.93
2018-03-20T04:57:18.016Z,4.45
2018-03-20T04:59:46.772Z,3.15
2018-03-20T05:02:14.771Z,3.70
2018-03-20T05:04:42.773Z,2.90
2018-03-20T05:07:11.534Z,2.72
2018-03-20T05:09:39.528Z,4.47
2018-03-20T05:12:07.537Z,4.57
2018-03-20T05:14:36.368Z,3.97
2018-03-20T05:17:04.373Z,4.35
2018-03-20T05:19:47.266Z,3.10
2018-03-20T05:25:15.054Z,3.90
2018-03-20T05:27:43.101Z,4.53
2018-03-20T05:30:11.836Z,4.03
2018-03-20T05:32:39.823Z,3.78
2018-03-20T05:35:07.828Z,3.85
2018-03-20T05:37:36.624Z,4.85
2018-03-20T05:40:05.388Z,4.07
2018-03-20T05:42:33.375Z,4.90
2018-03-20T05:45:01.389Z,5.30
2018-03-20T05:47:35.756Z,6.18
2018-03-20T05:50:09.607Z,5.70
2018-03-20T05:52:37.608Z,4.03
2018-03-20T05:55:05.618Z,4.68
2018-03-20T05:57:33.599Z,4.05
2018-03-20T06:00:01.605Z,4.95
2018-03-20T06:02:29.933Z,4.00
2018-03-20T06:04:57.904Z,4.93
2018-03-20T06:07:25.903Z,3.05
2018-03-20T06:09:53.944Z,3.70
2018-03-20T06:12:21.917Z,5.95
2018-03-20T06:14:49.923Z,5.28
2018-03-20T06:17:17.930Z,5.18
2018-03-20T06:19:45.912Z,5.37
2018-03-20T06:22:13.908Z,3.80
2018-03-20T06:24:42.693Z,7.00
2018-03-20T06:27:10.672Z,5.85
2018-03-20T06:29:38.676Z,4.90
2018-03-20T06:32:06.682Z,4.32
2018-03-20T06:34:34.677Z,5.03
2018-03-20T06:37:02.694Z,5.03
2018-03-20T06:39:30.690Z,3.92
2018-03-20T06:41:58.672Z,7.47
2018-03-20T06:44:26.675Z,4.40
2018-03-20T06:46:55.457Z,4.85
2018-03-20T06:49:23.440Z,2.95
2018-03-20T06:51:51.448Z,3.78
2018-03-20T06:54:20.216Z,3.00
2018-03-20T06:56:48.213Z,4.37
2018-03-20T06:59:16.224Z,4.55
2018-03-20T07:01:44.250Z,4.03
2018-03-20T07:04:12.228Z,3.60
2018-03-20T07:06:40.228Z,4.05
2018-03-20T07:09:08.280Z,3.80
2018-03-20T07:11:36.269Z,3.20
2018-03-20T07:14:04.276Z,3.80
2018-03-20T07:16:32.282Z,3.35
2018-03-20T07:19:00.264Z,4.35
2018-03-20T07:21:28.305Z,4.00
2018-03-20T07:23:56.276Z,3.72
2018-03-20T07:26:24.273Z,3.95
2018-03-20T07:28:52.349Z,3.70
2018-03-20T07:31:20.352Z,3.55
2018-03-20T07:33:48.344Z,4.47
2018-03-20T07:36:16.340Z,3.28
2018-03-20T07:38:44.353Z,3.40
2018-03-20T07:41:12.356Z,4.70
2018-03-20T07:43:40.360Z,3.22
2018-03-20T07:46:08.529Z,4.25
2018-03-20T07:48:36.523Z,4.75
2018-03-20T07:51:04.554Z,5.20
2018-03-20T07:53:33.328Z,3.50
2018-03-20T07:56:01.320Z,4.87
2018-03-20T07:58:29.345Z,3.55
2018-03-20T08:00:57.352Z,3.83
2018-03-20T08:03:25.390Z,4.28
2018-03-20T08:05:54.165Z,3.75
2018-03-20T08:08:22.172Z,3.15
2018-03-20T08:10:50.932Z,3.92
2018-03-20T08:13:18.928Z,3.90
2018-03-20T08:15:46.932Z,4.65
2018-03-20T08:18:15.696Z,3.90
2018-03-20T08:20:43.695Z,3.58
2018-03-20T08:23:11.705Z,4.87
2018-03-20T08:25:40.464Z,6.28
2018-03-20T08:28:08.475Z,3.58
2018-03-20T08:30:36.473Z,3.97
2018-03-20T08:33:06.225Z,3.97
2018-03-20T08:35:34.230Z,3.87
2018-03-20T08:38:02.226Z,3.83
2018-03-20T08:40:30.216Z,4.78
2018-03-20T08:42:58.217Z,4.20
2018-03-20T08:45:26.983Z,3.92
2018-03-20T08:47:54.969Z,3.90
2018-03-20T08:50:22.972Z,4.00
2018-03-20T08:52:50.981Z,3.50
2018-03-20T08:55:19.734Z,3.95
2018-03-20T08:57:47.728Z,4.50
2018-03-20T09:00:15.732Z,3.40
2018-03-20T09:02:43.709Z,4.70
2018-03-20T09:05:11.708Z,4.00
2018-03-20T09:07:40.468Z,4.03
2018-03-20T09:10:08.453Z,4.00
2018-03-20T09:12:36.477Z,4.60
2018-03-20T09:15:04.457Z,3.95
2018-03-20T09:17:33.206Z,3.47
2018-03-20T09:20:01.201Z,4.18
2018-03-20T09:22:29.200Z,4.40
2018-03-20T09:24:57.180Z,5.20
2018-03-20T09:27:25.180Z,4.05
2018-03-20T09:29:53.986Z,3.92
2018-03-20T09:32:22.733Z,3.42
2018-03-20T09:34:50.726Z,5.03
2018-03-20T09:37:18.720Z,2.58
2018-03-20T09:39:46.700Z,3.40
2018-03-20T09:42:14.702Z,4.35
2018-03-20T09:44:44.205Z,4.47
2018-03-20T09:47:12.196Z,3.92
2018-03-20T09:49:40.184Z,3.47
2018-03-20T09:52:08.181Z,4.28
2018-03-20T09:54:36.932Z,3.85
2018-03-20T09:57:04.920Z,2.87
2018-03-20T09:59:32.920Z,3.55
2018-03-20T10:02:00.908Z,3.37
2018-03-20T10:04:28.920Z,3.20
2018-03-20T10:06:56.912Z,2.83
2018-03-20T10:09:24.907Z,3.20
2018-03-20T10:11:52.917Z,3.05
2018-03-20T10:14:20.921Z,3.85
2018-03-20T10:16:48.904Z,4.60
2018-03-20T10:19:16.906Z,3.28
2018-03-20T10:21:45.682Z,4.90
2018-03-20T10:24:13.665Z,4.70
2018-03-20T10:26:41.660Z,4.37
2018-03-20T10:29:09.661Z,3.25
2018-03-20T10:31:38.421Z,4.12
2018-03-20T10:34:06.420Z,4.35
2018-03-20T10:36:36.408Z,2.22
2018-03-20T10:39:04.409Z,3.72
2018-03-20T10:41:32.428Z,2.95
2018-03-20T10:44:00.412Z,3.53
2018-03-20T10:46:29.182Z,4.30
2018-03-20T10:48:57.181Z,2.92
2018-03-20T10:51:25.188Z,3.22
2018-03-20T10:53:53.932Z,3.80
2018-03-20T10:56:21.939Z,3.87
2018-03-20T10:58:49.933Z,3.40
2018-03-20T11:01:24.476Z,2.37
2018-03-20T11:03:53.232Z,3.67
2018-03-20T11:06:21.213Z,3.20
2018-03-20T11:08:49.212Z,3.47
2018-03-20T11:11:17.320Z,3.10
2018-03-20T11:13:46.420Z,3.30
2018-03-20T11:16:14.429Z,3.40
2018-03-20T11:18:43.200Z,3.75
2018-03-20T11:21:11.189Z,3.40
2018-03-20T11:23:39.190Z,3.90
2018-03-20T11:26:07.952Z,3.30
2018-03-20T11:28:35.940Z,2.30
2018-03-20T11:31:03.936Z,4.18
2018-03-20T11:33:31.927Z,2.87
2018-03-20T11:36:00.688Z,2.92
2018-03-20T11:38:28.680Z,1.70
2018-03-20T11:40:56.688Z,4.78
2018-03-20T11:43:24.680Z,4.28
2018-03-20T11:45:53.448Z,2.45
2018-03-20T11:48:21.440Z,3.28
2018-03-20T11:50:49.419Z,3.22
2018-03-20T11:53:17.416Z,3.00
2018-03-20T11:55:45.421Z,2.25
2018-03-20T11:58:14.183Z,2.17
2018-03-20T12:00:42.172Z,2.45
2018-03-20T12:03:10.199Z,2.35
2018-03-20T12:05:38.180Z,2.40
2018-03-20T12:08:18.088Z,2.87
2018-03-20T12:10:46.080Z,3.35
2018-03-20T12:13:15.568Z,3.45
2018-03-20T12:15:43.560Z,2.53
2018-03-20T12:18:11.568Z,3.62
2018-03-20T12:20:39.552Z,3.70
2018-03-20T12:23:07.572Z,3.03
2018-03-20T12:25:36.325Z,2.80
2018-03-20T12:28:04.328Z,4.40
2018-03-20T12:30:32.331Z,5.10
2018-03-20T12:33:01.104Z,4.40
2018-03-20T12:35:29.095Z,4.78
2018-03-20T12:37:57.088Z,4.57
2018-03-20T12:40:25.861Z,4.03
2018-03-20T12:42:53.912Z,6.80
2018-03-20T12:45:21.912Z,5.37
2018-03-20T12:47:49.908Z,5.50
2018-03-20T12:50:17.897Z,5.20
2018-03-20T12:52:45.896Z,6.55
2018-03-20T12:55:14.660Z,3.83
2018-03-20T12:57:42.667Z,2.75
2018-03-20T13:00:10.653Z,3.78
2018-03-20T13:02:38.648Z,5.45
2018-03-20T13:05:07.420Z,6.68
2018-03-20T13:07:35.420Z,4.90
2018-03-20T13:10:03.416Z,5.18
2018-03-20T13:12:32.164Z,3.30
2018-03-20T13:15:00.172Z,4.50
2018-03-20T13:17:28.186Z,3.72
2018-03-20T13:19:56.941Z,4.90
2018-03-20T13:22:24.938Z,4.40
2018-03-20T13:24:52.945Z,4.68
2018-03-20T13:27:21.712Z,5.37
2018-03-20T13:29:49.705Z,4.65
2018-03-20T13:32:17.734Z,5.60
2018-03-20T13:34:46.481Z,5.05
2018-03-20T13:37:14.484Z,6.78
2018-03-20T13:39:43.261Z,5.95
2018-03-20T13:42:11.236Z,5.80
2018-03-20T13:44:39.233Z,5.18
2018-03-20T13:47:07.241Z,5.07
2018-03-20T13:49:35.992Z,5.95
2018-03-20T13:52:04.393Z,5.20
2018-03-20T13:54:32.385Z,5.37
2018-03-20T13:57:00.366Z,4.65
2018-03-20T13:59:28.372Z,5.32
2018-03-20T14:01:56.392Z,6.35
2018-03-20T14:04:24.402Z,5.10
2018-03-20T14:06:52.401Z,4.90
2018-03-20T14:09:20.405Z,4.93
2018-03-20T14:11:48.385Z,4.95
2018-03-20T14:14:17.161Z,4.87
2018-03-20T14:16:45.157Z,4.87
2018-03-20T14:19:13.208Z,5.93
2018-03-20T14:21:41.200Z,5.05
2018-03-20T14:24:09.204Z,6.30
2018-03-20T14:26:37.469Z,5.20
2018-03-20T14:29:05.476Z,6.40
2018-03-20T14:31:33.470Z,5.68
2018-03-20T14:34:01.456Z,5.45
2018-03-20T14:36:30.269Z,5.47
2018-03-20T14:38:58.220Z,5.60
2018-03-20T14:41:26.205Z,4.65
2018-03-20T14:43:54.254Z,5.90
2018-03-20T14:46:23.000Z,6.22
2018-03-20T14:48:51.008Z,5.80
2018-03-20T14:51:19.013Z,6.03
2018-03-20T14:53:47.025Z,5.85
2018-03-20T14:56:15.010Z,6.25
2018-03-20T14:58:43.015Z,6.72
2018-03-20T15:01:11.016Z,6.47
2018-03-20T15:03:39.009Z,6.28
2018-03-20T15:06:07.029Z,6.25
2018-03-20T15:08:35.024Z,7.00
2018-03-20T15:11:03.005Z,5.85
2018-03-20T15:13:31.003Z,6.05
2018-03-20T15:15:59.027Z,5.65
2018-03-20T15:18:27.753Z,6.85
2018-03-20T15:20:55.756Z,5.75
2018-03-20T15:23:23.768Z,6.32
2018-03-20T15:25:52.526Z,6.90
2018-03-20T15:28:20.530Z,7.30
2018-03-20T15:30:48.532Z,6.55
2018-03-20T15:33:17.284Z,9.55
2018-03-20T15:35:45.288Z,6.60
2018-03-20T15:38:13.300Z,7.43
2018-03-20T15:40:41.276Z,6.15
2018-03-20T15:43:10.036Z,5.87
2018-03-20T15:45:38.038Z,6.43
2018-03-20T15:48:06.028Z,7.22
2018-03-20T15:50:34.026Z,6.85
2018-03-20T15:53:02.792Z,6.43
2018-03-20T15:55:30.789Z,6.30
2018-03-20T15:57:58.801Z,6.45
2018-03-20T16:00:27.556Z,6.12
2018-03-20T16:02:55.562Z,6.28
2018-03-20T16:05:23.560Z,7.10
2018-03-20T16:07:52.328Z,7.85
2018-03-20T16:10:20.320Z,8.02
2018-03-20T16:12:48.326Z,5.95
2018-03-20T16:15:17.096Z,7.12
2018-03-20T16:17:45.088Z,6.05
2018-03-20T16:20:13.089Z,6.60
2018-03-20T16:22:41.864Z,7.65
2018-03-20T16:25:09.852Z,7.20
2018-03-20T16:27:37.856Z,6.12
2018-03-20T16:30:06.632Z,8.15
2018-03-20T16:32:34.617Z,6.30
2018-03-20T16:35:02.627Z,6.65
2018-03-20T16:37:31.405Z,7.78
2018-03-20T16:39:59.396Z,6.20
2018-03-20T16:42:27.413Z,7.15
2018-03-20T16:44:55.477Z,5.97
2018-03-20T16:47:23.480Z,7.37
2018-03-20T16:49:51.499Z,5.60
2018-03-20T16:52:19.503Z,6.10
2018-03-20T16:54:47.501Z,6.15
2018-03-20T16:57:16.264Z,6.10
2018-03-20T16:59:44.285Z,8.02
2018-03-20T17:02:12.264Z,6.75
2018-03-20T17:04:41.046Z,7.53
2018-03-20T17:07:09.040Z,7.85
2018-03-20T17:09:37.033Z,6.45
2018-03-20T17:12:05.837Z,7.22
2018-03-20T17:14:34.592Z,7.62
2018-03-20T17:17:02.886Z,7.00
2018-03-20T17:19:30.930Z,7.00
2018-03-20T17:21:58.887Z,6.20
2018-03-20T17:24:27.640Z,6.65
2018-03-20T17:26:55.655Z,6.70
2018-03-20T17:29:23.744Z,7.72
2018-03-20T17:31:51.741Z,7.18
2018-03-20T17:34:20.977Z,8.15
2018-03-20T17:36:49.045Z,8.50
2018-03-20T17:39:16.988Z,6.93
2018-03-20T17:41:45.015Z,7.05
2018-03-20T17:44:13.777Z,7.15
2018-03-20T17:46:42.092Z,8.27
2018-03-20T17:49:10.881Z,8.35
2018-03-20T17:51:38.945Z,8.50
2018-03-20T17:54:06.927Z,7.95
2018-03-20T17:56:35.925Z,8.15
2018-03-20T17:59:03.950Z,7.00
2018-03-20T18:01:32.696Z,6.22
2018-03-20T18:04:00.721Z,8.48
2018-03-20T18:06:28.729Z,7.80
2018-03-20T18:08:57.492Z,5.78
2018-03-20T18:11:25.496Z,6.25
2018-03-20T18:13:53.512Z,8.20
2018-03-20T18:16:21.570Z,8.30
2018-03-20T18:18:50.345Z,8.48
2018-03-20T18:21:18.353Z,7.80
2018-03-20T18:23:47.118Z,6.85
2018-03-20T18:26:15.126Z,8.65
2018-03-20T18:28:43.137Z,7.87
2018-03-20T18:31:11.140Z,7.30
2018-03-20T18:33:39.140Z,8.30
2018-03-20T18:36:07.152Z,8.77
2018-03-20T18:38:35.141Z,9.38
2018-03-20T18:41:03.144Z,6.87
2018-03-20T18:43:31.153Z,7.40
2018-03-20T18:45:59.135Z,7.25
2018-03-20T18:48:27.145Z,7.55
2018-03-20T18:50:55.146Z,7.90
2018-03-20T18:53:23.140Z,8.13
2018-03-20T18:55:51.923Z,8.40
2018-03-20T18:58:19.920Z,7.45
2018-03-20T19:00:48.689Z,9.23
2018-03-20T19:03:16.685Z,7.95
2018-03-20T19:05:44.736Z,6.45
2018-03-20T19:08:12.716Z,7.87
2018-03-20T19:10:40.727Z,8.52
2018-03-20T19:13:08.728Z,8.77
2018-03-20T19:15:36.724Z,8.07
2018-03-20T19:18:05.488Z,9.13
2018-03-20T19:20:33.488Z,8.65
2018-03-20T19:23:01.482Z,8.98
2018-03-20T19:25:30.461Z,6.07
2018-03-20T19:27:58.438Z,8.82
2018-03-20T19:30:26.442Z,9.30
2018-03-20T19:32:54.436Z,9.02
2018-03-20T19:35:23.204Z,9.75
2018-03-20T19:37:51.205Z,6.90
2018-03-20T19:40:19.209Z,9.10
2018-03-20T19:42:47.989Z,7.78
2018-03-20T19:45:15.972Z,8.25
2018-03-20T19:47:43.986Z,8.23
2018-03-20T19:50:11.980Z,7.70
2018-03-20T19:52:39.976Z,7.05
2018-03-20T19:55:07.968Z,7.53
2018-03-20T19:57:35.948Z,7.45
2018-03-20T20:00:03.955Z,7.95
2018-03-20T20:02:31.952Z,7.50
2018-03-20T20:04:59.935Z,6.53
2018-03-20T20:07:27.932Z,7.45
2018-03-20T20:09:56.693Z,7.20
2018-03-20T20:12:24.692Z,7.22
2018-03-20T20:14:52.705Z,7.82
2018-03-20T20:17:20.710Z,6.47
2018-03-20T20:19:48.705Z,5.97
2018-03-20T20:22:16.684Z,6.10
2018-03-20T20:24:44.704Z,6.97
2018-03-20T20:27:12.698Z,7.03
2018-03-20T20:29:40.688Z,7.18
2018-03-20T20:32:09.460Z,6.87
2018-03-20T20:34:37.497Z,6.85
2018-03-20T20:37:05.455Z,6.20
2018-03-20T20:39:34.196Z,5.35
2018-03-20T20:42:02.196Z,6.05
2018-03-20T20:44:30.179Z,5.10
2018-03-20T20:46:58.204Z,6.85
2018-03-20T20:49:27.288Z,4.70
2018-03-20T20:51:55.295Z,6.45
2018-03-20T20:54:24.046Z,4.93
2018-03-20T20:56:52.056Z,6.80
2018-03-20T20:59:20.074Z,5.20
2018-03-20T21:01:48.839Z,4.95
2018-03-20T21:04:16.836Z,5.97
2018-03-20T21:06:45.563Z,6.00
2018-03-20T21:09:13.580Z,5.22
2018-03-20T21:11:41.568Z,5.25
2018-03-20T21:14:09.576Z,6.40
2018-03-20T21:16:37.593Z,6.80
2018-03-20T21:19:05.584Z,5.07
2018-03-20T21:21:33.594Z,4.68
2018-03-20T21:24:01.578Z,6.95
2018-03-20T21:26:29.586Z,6.50
2018-03-20T21:28:57.672Z,6.12
2018-03-20T21:31:26.369Z,4.15
2018-03-20T21:33:54.372Z,5.78
2018-03-20T21:36:23.144Z,5.68
2018-03-20T21:38:51.148Z,5.32
2018-03-20T21:41:19.144Z,5.35
2018-03-20T21:43:47.889Z,5.95
2018-03-20T21:46:15.893Z,6.40
2018-03-20T21:48:43.894Z,6.47
2018-03-20T21:51:12.734Z,6.78
2018-03-20T21:53:40.724Z,4.55
2018-03-20T21:56:09.085Z,6.07
2018-03-20T21:58:37.849Z,5.20
2018-03-20T22:01:05.851Z,5.55
2018-03-20T22:03:33.855Z,6.10
2018-03-20T22:06:01.872Z,3.80
2018-03-20T22:08:29.860Z,5.28
2018-03-20T22:10:57.882Z,5.72
2018-03-20T22:13:25.888Z,5.18
2018-03-20T22:15:54.653Z,5.45
2018-03-20T22:18:22.669Z,6.12
2018-03-20T22:20:51.498Z,5.18
2018-03-20T22:23:19.489Z,5.93
2018-03-20T22:25:47.480Z,6.70
2018-03-20T22:28:15.518Z,6.10
2018-03-20T22:30:44.284Z,4.15
2018-03-20T22:33:12.280Z,4.90
2018-03-20T22:35:40.275Z,4.53
2018-03-20T22:38:09.044Z,4.25
2018-03-20T22:40:37.196Z,5.00
2018-03-20T22:43:05.204Z,5.57
2018-03-20T22:45:33.192Z,5.18
2018-03-20T22:48:01.192Z,4.87
2018-03-20T22:50:29.206Z,4.35
2018-03-20T22:52:57.227Z,4.68
2018-03-20T22:55:25.227Z,4.57
2018-03-20T22:57:53.217Z,5.35
2018-03-20T23:00:28.195Z,4.35
2018-03-20T23:02:56.943Z,4.68
2018-03-20T23:05:24.968Z,4.60
2018-03-20T23:07:53.756Z,4.00
2018-03-20T23:10:21.752Z,5.20
2018-03-20T23:12:50.540Z,4.75
2018-03-20T23:15:18.536Z,4.72
2018-03-20T23:17:47.304Z,3.78
2018-03-20T23:20:15.343Z,3.33
2018-03-20T23:22:44.073Z,4.03
2018-03-20T23:25:12.081Z,3.30
2018-03-20T23:27:41.584Z,4.65
2018-03-20T23:30:09.644Z,4.72
2018-03-20T23:32:37.644Z,3.58
2018-03-20T23:35:05.694Z,4.10
2018-03-20T23:37:33.641Z,3.47
2018-03-20T23:40:01.637Z,3.83
2018-03-20T23:42:30.453Z,4.12
2018-03-20T23:44:58.467Z,4.55
2018-03-20T23:47:26.478Z,3.42
2018-03-20T23:49:54.492Z,3.55
2018-03-20T23:52:23.276Z,3.90
2018-03-20T23:54:51.316Z,4.37
2018-03-20T23:57:19.325Z,4.12
2018-03-20T23:59:47.312Z,5.22
